sensor_id;sensor_type;location;lat;lon;timestamp;temperature;humidity
58993;DHT22;44782;0.000;0.000;2023-02-11T00:00:53;15.40;59.50
58993;DHT22;44782;0.000;0.000;2023-02-11T00:03:08;15.40;59.50
58993;DHT22;44782;0.000;0.000;2023-02-11T00:05:24;15.40;59.50
58993;DHT22;44782;0.000;0.000;2023-02-11T00:07:40;15.40;59.50
58993;DHT22;44782;0.000;0.000;2023-02-11T00:09:56;15.30;59.50
58993;DHT22;44782;0.000;0.000;2023-02-11T00:12:11;15.30;59.40
58993;DHT22;44782;0.000;0.000;2023-02-11T00:14:27;15.30;59.20
58993;DHT22;44782;0.000;0.000;2023-02-11T00:16:43;15.20;58.90
58993;DHT22;44782;0.000;0.000;2023-02-11T00:18:59;15.20;58.90
58993;DHT22;44782;0.000;0.000;2023-02-11T00:21:19;15.10;58.90
58993;DHT22;44782;0.000;0.000;2023-02-11T00:23:35;15.10;59.00
58993;DHT22;44782;0.000;0.000;2023-02-11T00:25:51;15.10;59.10
58993;DHT22;44782;0.000;0.000;2023-02-11T00:28:07;15.00;59.10
58993;DHT22;44782;0.000;0.000;2023-02-11T00:30:23;15.00;59.10
58993;DHT22;44782;0.000;0.000;2023-02-11T00:32:39;14.90;59.10
58993;DHT22;44782;0.000;0.000;2023-02-11T00:34:56;14.90;59.00
58993;DHT22;44782;0.000;0.000;2023-02-11T00:37:12;14.80;59.00
58993;DHT22;44782;0.000;0.000;2023-02-11T00:39:28;14.80;59.00
58993;DHT22;44782;0.000;0.000;2023-02-11T00:41:43;14.80;59.00
58993;DHT22;44782;0.000;0.000;2023-02-11T00:44:00;14.80;59.00
58993;DHT22;44782;0.000;0.000;2023-02-11T00:46:16;14.70;58.90
58993;DHT22;44782;0.000;0.000;2023-02-11T00:48:32;14.70;58.90
58993;DHT22;44782;0.000;0.000;2023-02-11T00:50:48;14.70;58.80
58993;DHT22;44782;0.000;0.000;2023-02-11T00:53:04;14.70;58.80
58993;DHT22;44782;0.000;0.000;2023-02-11T00:55:20;14.60;58.70
58993;DHT22;44782;0.000;0.000;2023-02-11T00:57:35;14.60;58.70
58993;DHT22;44782;0.000;0.000;2023-02-11T00:59:51;14.60;58.60
58993;DHT22;44782;0.000;0.000;2023-02-11T01:02:07;14.50;58.50
58993;DHT22;44782;0.000;0.000;2023-02-11T01:04:22;14.50;58.60
58993;DHT22;44782;0.000;0.000;2023-02-11T01:06:38;14.50;58.60
58993;DHT22;44782;0.000;0.000;2023-02-11T01:08:54;14.40;58.30
58993;DHT22;44782;0.000;0.000;2023-02-11T01:11:15;14.40;59.00
58993;DHT22;44782;0.000;0.000;2023-02-11T01:13:33;14.40;58.20
58993;DHT22;44782;0.000;0.000;2023-02-11T01:15:49;14.40;58.30
58993;DHT22;44782;0.000;0.000;2023-02-11T01:18:05;14.40;58.20
58993;DHT22;44782;0.000;0.000;2023-02-11T01:20:23;14.30;58.10
58993;DHT22;44782;0.000;0.000;2023-02-11T01:22:39;14.30;58.00
58993;DHT22;44782;0.000;0.000;2023-02-11T01:24:55;14.30;58.00
58993;DHT22;44782;0.000;0.000;2023-02-11T01:27:10;14.30;58.00
58993;DHT22;44782;0.000;0.000;2023-02-11T01:29:26;14.20;57.90
58993;DHT22;44782;0.000;0.000;2023-02-11T01:31:42;14.20;57.90
58993;DHT22;44782;0.000;0.000;2023-02-11T01:33:57;14.20;57.80
58993;DHT22;44782;0.000;0.000;2023-02-11T01:36:13;14.20;57.80
58993;DHT22;44782;0.000;0.000;2023-02-11T01:38:29;14.10;57.60
58993;DHT22;44782;0.000;0.000;2023-02-11T01:40:50;14.10;57.60
58993;DHT22;44782;0.000;0.000;2023-02-11T01:43:06;14.10;57.50
58993;DHT22;44782;0.000;0.000;2023-02-11T01:45:57;14.10;57.50
58993;DHT22;44782;0.000;0.000;2023-02-11T01:48:20;14.10;57.00
58993;DHT22;44782;0.000;0.000;2023-02-11T01:50:37;14.00;57.40
58993;DHT22;44782;0.000;0.000;2023-02-11T01:52:54;14.00;57.30
58993;DHT22;44782;0.000;0.000;2023-02-11T01:55:30;14.00;57.50
58993;DHT22;44782;0.000;0.000;2023-02-11T01:58:05;14.00;57.40
58993;DHT22;44782;0.000;0.000;2023-02-11T02:00:35;14.00;57.40
58993;DHT22;44782;0.000;0.000;2023-02-11T02:05:34;14.00;57.20
58993;DHT22;44782;0.000;0.000;2023-02-11T02:10:20;14.00;57.40
58993;DHT22;44782;0.000;0.000;2023-02-11T02:12:37;14.00;57.40
58993;DHT22;44782;0.000;0.000;2023-02-11T02:17:40;14.00;57.20
58993;DHT22;44782;0.000;0.000;2023-02-11T02:20:36;14.00;57.30
58993;DHT22;44782;0.000;0.000;2023-02-11T02:25:43;14.00;57.50
58993;DHT22;44782;0.000;0.000;2023-02-11T02:33:32;14.00;57.70
58993;DHT22;44782;0.000;0.000;2023-02-11T02:36:15;14.00;57.70
58993;DHT22;44782;0.000;0.000;2023-02-11T02:38:44;14.00;57.50
58993;DHT22;44782;0.000;0.000;2023-02-11T02:41:07;14.00;57.80
58993;DHT22;44782;0.000;0.000;2023-02-11T02:43:26;14.10;57.90
58993;DHT22;44782;0.000;0.000;2023-02-11T02:45:41;14.10;57.90
58993;DHT22;44782;0.000;0.000;2023-02-11T02:47:58;14.10;57.80
58993;DHT22;44782;0.000;0.000;2023-02-11T02:50:16;14.10;57.80
58993;DHT22;44782;0.000;0.000;2023-02-11T02:55:26;14.20;57.80
58993;DHT22;44782;0.000;0.000;2023-02-11T03:00:43;14.30;57.90
58993;DHT22;44782;0.000;0.000;2023-02-11T03:03:25;14.30;57.80
58993;DHT22;44782;0.000;0.000;2023-02-11T03:05:57;14.40;57.80
58993;DHT22;44782;0.000;0.000;2023-02-11T03:08:17;14.40;57.80
58993;DHT22;44782;0.000;0.000;2023-02-11T03:10:40;14.40;57.70
58993;DHT22;44782;0.000;0.000;2023-02-11T03:12:57;14.50;57.60
58993;DHT22;44782;0.000;0.000;2023-02-11T03:15:15;14.50;57.60
58993;DHT22;44782;0.000;0.000;2023-02-11T03:17:33;14.50;57.50
58993;DHT22;44782;0.000;0.000;2023-02-11T03:19:50;14.60;57.40
58993;DHT22;44782;0.000;0.000;2023-02-11T03:22:24;14.70;57.50
58993;DHT22;44782;0.000;0.000;2023-02-11T03:24:41;14.70;57.30
58993;DHT22;44782;0.000;0.000;2023-02-11T03:27:06;14.70;57.30
58993;DHT22;44782;0.000;0.000;2023-02-11T03:32:07;14.80;57.20
58993;DHT22;44782;0.000;0.000;2023-02-11T03:34:28;14.90;57.10
58993;DHT22;44782;0.000;0.000;2023-02-11T03:37:05;14.80;57.00
58993;DHT22;44782;0.000;0.000;2023-02-11T03:39:26;15.00;56.80
58993;DHT22;44782;0.000;0.000;2023-02-11T03:41:46;14.90;56.80
58993;DHT22;44782;0.000;0.000;2023-02-11T03:44:03;15.00;56.80
58993;DHT22;44782;0.000;0.000;2023-02-11T03:46:24;15.00;56.80
58993;DHT22;44782;0.000;0.000;2023-02-11T03:48:46;15.00;56.60
58993;DHT22;44782;0.000;0.000;2023-02-11T03:51:06;15.10;56.60
58993;DHT22;44782;0.000;0.000;2023-02-11T03:53:22;15.10;56.50
58993;DHT22;44782;0.000;0.000;2023-02-11T03:55:39;15.20;56.50
58993;DHT22;44782;0.000;0.000;2023-02-11T03:57:56;15.20;56.50
58993;DHT22;44782;0.000;0.000;2023-02-11T04:00:12;15.20;56.40
58993;DHT22;44782;0.000;0.000;2023-02-11T04:02:32;15.30;56.30
58993;DHT22;44782;0.000;0.000;2023-02-11T04:04:48;15.30;56.30
58993;DHT22;44782;0.000;0.000;2023-02-11T04:07:04;15.30;56.30
58993;DHT22;44782;0.000;0.000;2023-02-11T04:09:20;15.30;56.80
58993;DHT22;44782;0.000;0.000;2023-02-11T04:11:36;15.40;56.20
58993;DHT22;44782;0.000;0.000;2023-02-11T04:13:51;15.40;56.10
58993;DHT22;44782;0.000;0.000;2023-02-11T04:16:07;15.40;56.00
58993;DHT22;44782;0.000;0.000;2023-02-11T04:18:23;15.40;55.90
58993;DHT22;44782;0.000;0.000;2023-02-11T04:20:39;15.40;55.80
58993;DHT22;44782;0.000;0.000;2023-02-11T04:22:54;15.50;55.80
58993;DHT22;44782;0.000;0.000;2023-02-11T04:25:10;15.50;55.80
58993;DHT22;44782;0.000;0.000;2023-02-11T04:27:26;15.50;55.70
58993;DHT22;44782;0.000;0.000;2023-02-11T04:29:41;15.50;55.70
58993;DHT22;44782;0.000;0.000;2023-02-11T04:31:57;15.60;55.60
58993;DHT22;44782;0.000;0.000;2023-02-11T04:34:13;15.60;55.60
58993;DHT22;44782;0.000;0.000;2023-02-11T04:36:29;15.60;55.50
58993;DHT22;44782;0.000;0.000;2023-02-11T04:38:45;15.60;55.40
58993;DHT22;44782;0.000;0.000;2023-02-11T04:41:00;15.70;55.40
58993;DHT22;44782;0.000;0.000;2023-02-11T04:43:16;15.70;55.40
58993;DHT22;44782;0.000;0.000;2023-02-11T04:45:33;15.70;55.30
58993;DHT22;44782;0.000;0.000;2023-02-11T04:47:48;15.70;55.20
58993;DHT22;44782;0.000;0.000;2023-02-11T04:50:07;15.70;55.20
58993;DHT22;44782;0.000;0.000;2023-02-11T04:52:23;15.70;55.10
58993;DHT22;44782;0.000;0.000;2023-02-11T04:54:39;15.80;55.10
58993;DHT22;44782;0.000;0.000;2023-02-11T04:56:55;15.80;55.10
58993;DHT22;44782;0.000;0.000;2023-02-11T04:59:11;15.80;55.00
58993;DHT22;44782;0.000;0.000;2023-02-11T05:01:27;15.80;54.90
58993;DHT22;44782;0.000;0.000;2023-02-11T05:03:43;15.80;54.90
58993;DHT22;44782;0.000;0.000;2023-02-11T05:05:59;15.80;54.90
58993;DHT22;44782;0.000;0.000;2023-02-11T05:08:15;15.80;54.70
58993;DHT22;44782;0.000;0.000;2023-02-11T05:10:30;15.90;54.80
58993;DHT22;44782;0.000;0.000;2023-02-11T05:12:47;15.90;54.70
58993;DHT22;44782;0.000;0.000;2023-02-11T05:15:04;15.90;54.60
58993;DHT22;44782;0.000;0.000;2023-02-11T05:17:20;15.90;54.60
58993;DHT22;44782;0.000;0.000;2023-02-11T05:19:35;15.90;54.50
58993;DHT22;44782;0.000;0.000;2023-02-11T05:21:51;15.90;54.50
58993;DHT22;44782;0.000;0.000;2023-02-11T05:24:07;15.90;54.40
58993;DHT22;44782;0.000;0.000;2023-02-11T05:26:24;16.00;54.40
58993;DHT22;44782;0.000;0.000;2023-02-11T05:28:40;16.00;54.30
58993;DHT22;44782;0.000;0.000;2023-02-11T05:30:57;16.00;54.30
58993;DHT22;44782;0.000;0.000;2023-02-11T05:33:13;15.90;54.20
58993;DHT22;44782;0.000;0.000;2023-02-11T05:35:29;16.00;54.20
58993;DHT22;44782;0.000;0.000;2023-02-11T05:37:45;16.00;54.20
58993;DHT22;44782;0.000;0.000;2023-02-11T05:40:00;16.00;54.20
58993;DHT22;44782;0.000;0.000;2023-02-11T05:42:16;16.00;54.20
58993;DHT22;44782;0.000;0.000;2023-02-11T05:44:32;16.00;54.10
58993;DHT22;44782;0.000;0.000;2023-02-11T05:46:47;16.00;54.20
58993;DHT22;44782;0.000;0.000;2023-02-11T05:49:03;15.90;54.10
58993;DHT22;44782;0.000;0.000;2023-02-11T05:51:19;15.90;54.00
58993;DHT22;44782;0.000;0.000;2023-02-11T05:53:35;15.90;54.00
58993;DHT22;44782;0.000;0.000;2023-02-11T05:55:50;15.90;54.00
58993;DHT22;44782;0.000;0.000;2023-02-11T05:58:06;15.90;54.00
58993;DHT22;44782;0.000;0.000;2023-02-11T06:00:22;15.90;54.00
58993;DHT22;44782;0.000;0.000;2023-02-11T06:02:39;15.90;54.00
58993;DHT22;44782;0.000;0.000;2023-02-11T06:04:54;15.90;53.90
58993;DHT22;44782;0.000;0.000;2023-02-11T06:07:10;15.80;53.90
58993;DHT22;44782;0.000;0.000;2023-02-11T06:09:26;15.80;53.90
58993;DHT22;44782;0.000;0.000;2023-02-11T06:11:42;15.80;53.90
58993;DHT22;44782;0.000;0.000;2023-02-11T06:13:57;15.80;53.90
58993;DHT22;44782;0.000;0.000;2023-02-11T06:16:13;15.80;53.90
58993;DHT22;44782;0.000;0.000;2023-02-11T06:18:29;15.80;54.00
58993;DHT22;44782;0.000;0.000;2023-02-11T06:20:44;15.80;53.90
58993;DHT22;44782;0.000;0.000;2023-02-11T06:23:00;15.80;53.90
58993;DHT22;44782;0.000;0.000;2023-02-11T06:25:16;15.80;53.90
58993;DHT22;44782;0.000;0.000;2023-02-11T06:27:32;15.80;53.90
58993;DHT22;44782;0.000;0.000;2023-02-11T06:29:47;15.80;53.80
58993;DHT22;44782;0.000;0.000;2023-02-11T06:32:04;15.80;53.80
58993;DHT22;44782;0.000;0.000;2023-02-11T06:34:19;15.90;53.70
58993;DHT22;44782;0.000;0.000;2023-02-11T06:36:37;15.90;53.70
58993;DHT22;44782;0.000;0.000;2023-02-11T06:38:54;15.90;53.60
58993;DHT22;44782;0.000;0.000;2023-02-11T06:41:11;15.90;53.60
58993;DHT22;44782;0.000;0.000;2023-02-11T06:43:27;15.90;53.60
58993;DHT22;44782;0.000;0.000;2023-02-11T06:45:43;15.90;53.60
58993;DHT22;44782;0.000;0.000;2023-02-11T06:47:59;15.90;53.50
58993;DHT22;44782;0.000;0.000;2023-02-11T06:50:15;16.00;53.50
58993;DHT22;44782;0.000;0.000;2023-02-11T06:52:31;16.00;53.40
58993;DHT22;44782;0.000;0.000;2023-02-11T06:54:47;16.00;53.40
58993;DHT22;44782;0.000;0.000;2023-02-11T06:57:02;16.00;53.30
58993;DHT22;44782;0.000;0.000;2023-02-11T06:59:19;16.00;53.30
58993;DHT22;44782;0.000;0.000;2023-02-11T07:01:38;16.10;53.30
58993;DHT22;44782;0.000;0.000;2023-02-11T07:03:54;16.10;53.30
58993;DHT22;44782;0.000;0.000;2023-02-11T07:06:16;16.10;53.20
58993;DHT22;44782;0.000;0.000;2023-02-11T07:08:33;16.10;53.00
58993;DHT22;44782;0.000;0.000;2023-02-11T07:10:49;16.10;53.20
58993;DHT22;44782;0.000;0.000;2023-02-11T07:13:05;16.10;53.10
58993;DHT22;44782;0.000;0.000;2023-02-11T07:15:21;16.10;53.10
58993;DHT22;44782;0.000;0.000;2023-02-11T07:17:36;16.10;53.20
58993;DHT22;44782;0.000;0.000;2023-02-11T07:19:52;16.10;53.40
58993;DHT22;44782;0.000;0.000;2023-02-11T07:22:07;16.20;53.50
58993;DHT22;44782;0.000;0.000;2023-02-11T07:24:23;16.20;53.70
58993;DHT22;44782;0.000;0.000;2023-02-11T07:26:39;16.20;54.00
58993;DHT22;44782;0.000;0.000;2023-02-11T07:28:55;16.20;54.20
58993;DHT22;44782;0.000;0.000;2023-02-11T07:31:14;16.20;54.40
58993;DHT22;44782;0.000;0.000;2023-02-11T07:33:30;16.20;54.50
58993;DHT22;44782;0.000;0.000;2023-02-11T07:35:45;16.20;54.60
58993;DHT22;44782;0.000;0.000;2023-02-11T07:38:01;16.20;54.80
58993;DHT22;44782;0.000;0.000;2023-02-11T07:40:17;16.20;54.90
58993;DHT22;44782;0.000;0.000;2023-02-11T07:42:34;16.20;55.00
58993;DHT22;44782;0.000;0.000;2023-02-11T07:44:49;16.20;55.10
58993;DHT22;44782;0.000;0.000;2023-02-11T07:47:05;16.20;55.20
58993;DHT22;44782;0.000;0.000;2023-02-11T07:49:21;16.10;55.20
58993;DHT22;44782;0.000;0.000;2023-02-11T07:51:37;16.10;55.30
58993;DHT22;44782;0.000;0.000;2023-02-11T07:53:53;16.10;55.50
58993;DHT22;44782;0.000;0.000;2023-02-11T07:56:10;16.10;55.60
58993;DHT22;44782;0.000;0.000;2023-02-11T07:58:26;16.10;55.80
58993;DHT22;44782;0.000;0.000;2023-02-11T08:00:42;16.10;56.00
58993;DHT22;44782;0.000;0.000;2023-02-11T08:02:58;16.10;56.30
58993;DHT22;44782;0.000;0.000;2023-02-11T08:05:14;16.10;56.40
58993;DHT22;44782;0.000;0.000;2023-02-11T08:07:29;16.10;56.50
58993;DHT22;44782;0.000;0.000;2023-02-11T08:09:45;16.00;56.60
58993;DHT22;44782;0.000;0.000;2023-02-11T08:12:01;16.00;56.70
58993;DHT22;44782;0.000;0.000;2023-02-11T08:14:16;16.00;56.70
58993;DHT22;44782;0.000;0.000;2023-02-11T08:16:34;16.00;56.70
58993;DHT22;44782;0.000;0.000;2023-02-11T08:18:51;16.00;56.80
58993;DHT22;44782;0.000;0.000;2023-02-11T08:21:08;15.90;57.20
58993;DHT22;44782;0.000;0.000;2023-02-11T08:23:24;15.90;56.70
58993;DHT22;44782;0.000;0.000;2023-02-11T08:25:40;15.90;56.50
58993;DHT22;44782;0.000;0.000;2023-02-11T08:27:55;15.90;56.60
58993;DHT22;44782;0.000;0.000;2023-02-11T08:30:12;15.90;56.60
58993;DHT22;44782;0.000;0.000;2023-02-11T08:32:28;15.90;56.70
58993;DHT22;44782;0.000;0.000;2023-02-11T08:34:44;15.90;56.70
58993;DHT22;44782;0.000;0.000;2023-02-11T08:37:00;15.80;56.80
58993;DHT22;44782;0.000;0.000;2023-02-11T08:39:20;15.80;56.80
58993;DHT22;44782;0.000;0.000;2023-02-11T08:41:36;15.90;57.30
58993;DHT22;44782;0.000;0.000;2023-02-11T08:43:52;15.90;57.20
58993;DHT22;44782;0.000;0.000;2023-02-11T08:46:11;15.90;57.30
58993;DHT22;44782;0.000;0.000;2023-02-11T08:48:27;15.90;57.10
58993;DHT22;44782;0.000;0.000;2023-02-11T08:50:43;15.90;57.00
58993;DHT22;44782;0.000;0.000;2023-02-11T08:52:59;15.90;56.80
58993;DHT22;44782;0.000;0.000;2023-02-11T08:55:14;15.90;56.60
58993;DHT22;44782;0.000;0.000;2023-02-11T08:57:30;15.90;56.60
58993;DHT22;44782;0.000;0.000;2023-02-11T08:59:46;15.80;56.50
58993;DHT22;44782;0.000;0.000;2023-02-11T09:02:02;15.80;56.50
58993;DHT22;44782;0.000;0.000;2023-02-11T09:04:18;15.80;56.50
58993;DHT22;44782;0.000;0.000;2023-02-11T09:06:34;15.80;56.50
58993;DHT22;44782;0.000;0.000;2023-02-11T09:08:52;15.80;56.50
58993;DHT22;44782;0.000;0.000;2023-02-11T09:11:09;15.80;56.40
58993;DHT22;44782;0.000;0.000;2023-02-11T09:13:24;15.80;56.40
58993;DHT22;44782;0.000;0.000;2023-02-11T09:15:44;15.80;56.40
58993;DHT22;44782;0.000;0.000;2023-02-11T09:18:01;15.80;56.20
58993;DHT22;44782;0.000;0.000;2023-02-11T09:20:17;15.80;56.20
58993;DHT22;44782;0.000;0.000;2023-02-11T09:22:33;15.80;56.20
58993;DHT22;44782;0.000;0.000;2023-02-11T09:24:48;15.80;56.10
58993;DHT22;44782;0.000;0.000;2023-02-11T09:27:05;15.80;56.00
58993;DHT22;44782;0.000;0.000;2023-02-11T09:29:20;15.80;55.80
58993;DHT22;44782;0.000;0.000;2023-02-11T09:31:36;15.80;55.80
58993;DHT22;44782;0.000;0.000;2023-02-11T09:33:54;15.80;55.70
58993;DHT22;44782;0.000;0.000;2023-02-11T09:36:10;15.80;55.60
58993;DHT22;44782;0.000;0.000;2023-02-11T09:38:26;15.80;55.50
58993;DHT22;44782;0.000;0.000;2023-02-11T09:40:45;15.80;55.40
58993;DHT22;44782;0.000;0.000;2023-02-11T09:43:18;15.80;55.30
58993;DHT22;44782;0.000;0.000;2023-02-11T09:45:35;15.80;55.00
58993;DHT22;44782;0.000;0.000;2023-02-11T09:47:57;15.70;55.20
58993;DHT22;44782;0.000;0.000;2023-02-11T09:50:20;15.70;55.00
58993;DHT22;44782;0.000;0.000;2023-02-11T09:53:06;15.70;55.00
58993;DHT22;44782;0.000;0.000;2023-02-11T09:55:33;15.70;54.80
58993;DHT22;44782;0.000;0.000;2023-02-11T09:57:52;15.70;54.70
58993;DHT22;44782;0.000;0.000;2023-02-11T10:00:18;15.60;55.00
58993;DHT22;44782;0.000;0.000;2023-02-11T10:05:24;15.60;54.80
58993;DHT22;44782;0.000;0.000;2023-02-11T10:10:22;15.60;54.50
58993;DHT22;44782;0.000;0.000;2023-02-11T10:20:35;15.50;53.80
58993;DHT22;44782;0.000;0.000;2023-02-11T10:22:54;15.50;54.00
58993;DHT22;44782;0.000;0.000;2023-02-11T10:25:38;15.40;55.00
58993;DHT22;44782;0.000;0.000;2023-02-11T10:27:57;15.40;53.90
58993;DHT22;44782;0.000;0.000;2023-02-11T10:30:25;15.40;54.20
58993;DHT22;44782;0.000;0.000;2023-02-11T10:35:26;15.40;53.80
58993;DHT22;44782;0.000;0.000;2023-02-11T10:37:42;15.30;54.10
58993;DHT22;44782;0.000;0.000;2023-02-11T10:39:58;15.30;54.00
58993;DHT22;44782;0.000;0.000;2023-02-11T10:42:14;15.30;54.00
58993;DHT22;44782;0.000;0.000;2023-02-11T10:44:37;15.30;53.90
58993;DHT22;44782;0.000;0.000;2023-02-11T10:46:55;15.30;53.60
58993;DHT22;44782;0.000;0.000;2023-02-11T10:49:33;15.20;53.80
58993;DHT22;44782;0.000;0.000;2023-02-11T10:51:50;15.30;53.30
58993;DHT22;44782;0.000;0.000;2023-02-11T10:54:22;15.20;53.80
58993;DHT22;44782;0.000;0.000;2023-02-11T10:56:48;15.20;53.90
58993;DHT22;44782;0.000;0.000;2023-02-11T10:59:26;15.20;53.70
58993;DHT22;44782;0.000;0.000;2023-02-11T11:02:23;15.30;54.30
58993;DHT22;44782;0.000;0.000;2023-02-11T11:04:46;15.30;55.30
58993;DHT22;44782;0.000;0.000;2023-02-11T11:07:29;15.30;55.20
58993;DHT22;44782;0.000;0.000;2023-02-11T11:12:04;15.40;56.10
58993;DHT22;44782;0.000;0.000;2023-02-11T11:14:20;15.40;56.00
58993;DHT22;44782;0.000;0.000;2023-02-11T11:16:51;15.40;56.10
58993;DHT22;44782;0.000;0.000;2023-02-11T11:21:25;15.40;56.30
58993;DHT22;44782;0.000;0.000;2023-02-11T11:23:51;15.40;56.40
58993;DHT22;44782;0.000;0.000;2023-02-11T11:26:15;15.50;56.60
58993;DHT22;44782;0.000;0.000;2023-02-11T11:28:39;15.50;56.70
58993;DHT22;44782;0.000;0.000;2023-02-11T11:30:56;15.50;56.80
58993;DHT22;44782;0.000;0.000;2023-02-11T11:33:20;15.50;56.70
58993;DHT22;44782;0.000;0.000;2023-02-11T11:35:36;15.60;57.00
58993;DHT22;44782;0.000;0.000;2023-02-11T11:38:03;15.60;56.80
58993;DHT22;44782;0.000;0.000;2023-02-11T11:40:37;15.60;56.70
58993;DHT22;44782;0.000;0.000;2023-02-11T11:43:15;15.70;57.10
58993;DHT22;44782;0.000;0.000;2023-02-11T11:45:33;15.70;57.10
58993;DHT22;44782;0.000;0.000;2023-02-11T11:47:55;15.70;57.00
58993;DHT22;44782;0.000;0.000;2023-02-11T11:52:56;15.90;58.50
58993;DHT22;44782;0.000;0.000;2023-02-11T11:55:27;15.90;58.40
58993;DHT22;44782;0.000;0.000;2023-02-11T11:57:46;16.00;59.10
58993;DHT22;44782;0.000;0.000;2023-02-11T12:00:02;16.10;59.10
58993;DHT22;44782;0.000;0.000;2023-02-11T12:05:47;16.20;61.40
58993;DHT22;44782;0.000;0.000;2023-02-11T12:08:12;16.30;61.00
58993;DHT22;44782;0.000;0.000;2023-02-11T12:10:53;16.30;61.00
58993;DHT22;44782;0.000;0.000;2023-02-11T12:21:46;16.50;60.90
58993;DHT22;44782;0.000;0.000;2023-02-11T12:26:59;16.50;59.80
58993;DHT22;44782;0.000;0.000;2023-02-11T12:29:42;16.60;59.90
58993;DHT22;44782;0.000;0.000;2023-02-11T12:32:24;16.60;59.70
58993;DHT22;44782;0.000;0.000;2023-02-11T12:37:16;16.50;59.30
58993;DHT22;44782;0.000;0.000;2023-02-11T12:39:49;16.50;59.10
58993;DHT22;44782;0.000;0.000;2023-02-11T12:45:23;16.50;59.20
58993;DHT22;44782;0.000;0.000;2023-02-11T12:50:25;16.50;59.10
58993;DHT22;44782;0.000;0.000;2023-02-11T12:53:01;16.40;58.90
58993;DHT22;44782;0.000;0.000;2023-02-11T12:55:23;16.50;59.00
58993;DHT22;44782;0.000;0.000;2023-02-11T12:57:40;16.40;58.70
58993;DHT22;44782;0.000;0.000;2023-02-11T13:00:06;16.40;58.70
58993;DHT22;44782;0.000;0.000;2023-02-11T13:07:42;16.40;58.50
58993;DHT22;44782;0.000;0.000;2023-02-11T13:10:26;16.40;58.50
58993;DHT22;44782;0.000;0.000;2023-02-11T13:12:45;16.40;58.40
58993;DHT22;44782;0.000;0.000;2023-02-11T13:15:21;16.40;58.30
58993;DHT22;44782;0.000;0.000;2023-02-11T13:20:35;16.40;58.30
58993;DHT22;44782;0.000;0.000;2023-02-11T13:23:01;16.40;58.20
58993;DHT22;44782;0.000;0.000;2023-02-11T13:30:37;16.30;58.10
58993;DHT22;44782;0.000;0.000;2023-02-11T13:35:33;16.30;58.10
58993;DHT22;44782;0.000;0.000;2023-02-11T13:37:49;16.40;58.00
58993;DHT22;44782;0.000;0.000;2023-02-11T13:42:22;16.40;58.00
58993;DHT22;44782;0.000;0.000;2023-02-11T13:44:38;16.30;57.90
58993;DHT22;44782;0.000;0.000;2023-02-11T13:47:02;16.40;57.90
58993;DHT22;44782;0.000;0.000;2023-02-11T13:49:37;16.40;57.80
58993;DHT22;44782;0.000;0.000;2023-02-11T13:51:56;16.50;57.80
58993;DHT22;44782;0.000;0.000;2023-02-11T13:54:21;16.50;57.80
58993;DHT22;44782;0.000;0.000;2023-02-11T13:56:39;16.50;57.70
58993;DHT22;44782;0.000;0.000;2023-02-11T13:59:03;16.60;57.60
58993;DHT22;44782;0.000;0.000;2023-02-11T14:04:30;16.60;57.30
58993;DHT22;44782;0.000;0.000;2023-02-11T14:09:56;16.70;57.20
58993;DHT22;44782;0.000;0.000;2023-02-11T14:12:22;16.60;57.30
58993;DHT22;44782;0.000;0.000;2023-02-11T14:15:17;16.70;57.00
58993;DHT22;44782;0.000;0.000;2023-02-11T14:17:33;16.70;56.80
58993;DHT22;44782;0.000;0.000;2023-02-11T14:19:49;16.70;57.20
58993;DHT22;44782;0.000;0.000;2023-02-11T14:22:12;16.70;57.10
58993;DHT22;44782;0.000;0.000;2023-02-11T14:26:59;16.70;57.00
58993;DHT22;44782;0.000;0.000;2023-02-11T14:31:59;16.70;57.00
58993;DHT22;44782;0.000;0.000;2023-02-11T14:41:53;16.70;56.70
58993;DHT22;44782;0.000;0.000;2023-02-11T14:44:18;16.70;56.90
58993;DHT22;44782;0.000;0.000;2023-02-11T14:46:35;16.70;56.60
58993;DHT22;44782;0.000;0.000;2023-02-11T14:48:53;16.70;56.80
58993;DHT22;44782;0.000;0.000;2023-02-11T14:51:19;16.70;56.70
58993;DHT22;44782;0.000;0.000;2023-02-11T14:53:42;16.70;56.70
58993;DHT22;44782;0.000;0.000;2023-02-11T14:55:59;16.70;56.60
58993;DHT22;44782;0.000;0.000;2023-02-11T15:00:30;16.60;56.70
58993;DHT22;44782;0.000;0.000;2023-02-11T15:02:47;16.60;56.70
58993;DHT22;44782;0.000;0.000;2023-02-11T15:05:24;16.60;56.70
58993;DHT22;44782;0.000;0.000;2023-02-11T15:07:58;16.70;56.50
58993;DHT22;44782;0.000;0.000;2023-02-11T15:10:30;16.60;56.50
58993;DHT22;44782;0.000;0.000;2023-02-11T15:12:48;16.60;56.80
58993;DHT22;44782;0.000;0.000;2023-02-11T15:15:04;16.60;56.70
58993;DHT22;44782;0.000;0.000;2023-02-11T15:17:23;16.50;56.70
58993;DHT22;44782;0.000;0.000;2023-02-11T15:19:43;16.60;56.70
58993;DHT22;44782;0.000;0.000;2023-02-11T15:22:01;16.50;56.70
58993;DHT22;44782;0.000;0.000;2023-02-11T15:24:30;16.50;56.70
58993;DHT22;44782;0.000;0.000;2023-02-11T15:29:18;16.50;56.60
58993;DHT22;44782;0.000;0.000;2023-02-11T15:31:33;16.50;56.80
58993;DHT22;44782;0.000;0.000;2023-02-11T15:33:49;16.50;56.80
58993;DHT22;44782;0.000;0.000;2023-02-11T15:36:08;16.50;56.70
58993;DHT22;44782;0.000;0.000;2023-02-11T15:38:25;16.50;56.70
58993;DHT22;44782;0.000;0.000;2023-02-11T15:40:54;16.50;56.70
58993;DHT22;44782;0.000;0.000;2023-02-11T15:43:10;16.60;56.60
58993;DHT22;44782;0.000;0.000;2023-02-11T15:45:30;16.50;56.70
58993;DHT22;44782;0.000;0.000;2023-02-11T15:47:50;16.60;56.60
58993;DHT22;44782;0.000;0.000;2023-02-11T15:50:22;16.60;56.60
58993;DHT22;44782;0.000;0.000;2023-02-11T15:52:38;16.70;56.40
58993;DHT22;44782;0.000;0.000;2023-02-11T15:54:57;16.60;56.50
58993;DHT22;44782;0.000;0.000;2023-02-11T15:57:15;16.70;56.50
58993;DHT22;44782;0.000;0.000;2023-02-11T15:59:37;16.70;56.40
58993;DHT22;44782;0.000;0.000;2023-02-11T16:01:54;16.70;56.30
58993;DHT22;44782;0.000;0.000;2023-02-11T16:04:18;16.70;56.30
58993;DHT22;44782;0.000;0.000;2023-02-11T16:06:37;16.70;56.20
58993;DHT22;44782;0.000;0.000;2023-02-11T16:11:29;16.80;56.00
58993;DHT22;44782;0.000;0.000;2023-02-11T16:13:46;16.80;56.00
58993;DHT22;44782;0.000;0.000;2023-02-11T16:16:03;16.80;56.20
58993;DHT22;44782;0.000;0.000;2023-02-11T16:18:32;16.80;56.10
58993;DHT22;44782;0.000;0.000;2023-02-11T16:20:49;16.90;55.80
58993;DHT22;44782;0.000;0.000;2023-02-11T16:23:06;16.90;56.00
58993;DHT22;44782;0.000;0.000;2023-02-11T16:25:22;16.80;55.90
58993;DHT22;44782;0.000;0.000;2023-02-11T16:27:39;16.90;55.90
58993;DHT22;44782;0.000;0.000;2023-02-11T16:29:56;16.90;55.90
58993;DHT22;44782;0.000;0.000;2023-02-11T16:34:32;16.90;55.70
58993;DHT22;44782;0.000;0.000;2023-02-11T16:36:49;16.90;55.80
58993;DHT22;44782;0.000;0.000;2023-02-11T16:39:05;16.90;55.80
58993;DHT22;44782;0.000;0.000;2023-02-11T16:41:21;16.90;55.80
58993;DHT22;44782;0.000;0.000;2023-02-11T16:43:37;16.90;55.80
58993;DHT22;44782;0.000;0.000;2023-02-11T16:45:52;16.90;55.70
58993;DHT22;44782;0.000;0.000;2023-02-11T16:48:10;16.90;55.70
58993;DHT22;44782;0.000;0.000;2023-02-11T16:50:27;16.90;55.60
58993;DHT22;44782;0.000;0.000;2023-02-11T16:52:44;16.90;55.70